sensor_id;sensor_type;location;lat;lon;timestamp;pressure;altitude;pressure_sealevel;temperature;humidity
40992;BME280;29633;49.168;9.848;2023-02-16T00:01:21;97826.72;;;7.51;56.30
40992;BME280;29633;49.168;9.848;2023-02-16T00:03:47;97826.88;;;7.48;56.12
40992;BME280;29633;49.168;9.848;2023-02-16T00:06:12;97825.34;;;7.44;56.08
40992;BME280;29633;49.168;9.848;2023-02-16T00:08:46;97832.41;;;7.40;56.29
40992;BME280;29633;49.168;9.848;2023-02-16T00:11:14;97830.75;;;7.39;56.36
40992;BME280;29633;49.168;9.848;2023-02-16T00:14:00;97829.22;;;7.35;56.22
40992;BME280;29633;49.168;9.848;2023-02-16T00:16:25;97827.53;;;7.34;56.19
40992;BME280;29633;49.168;9.848;2023-02-16T00:18:51;97831.75;;;7.37;56.34
40992;BME280;29633;49.168;9.848;2023-02-16T00:21:18;97828.31;;;7.36;56.28
40992;BME280;29633;49.168;9.848;2023-02-16T00:23:44;97826.59;;;7.37;56.14
40992;BME280;29633;49.168;9.848;2023-02-16T00:26:21;97827.53;;;7.34;56.36
40992;BME280;29633;49.168;9.848;2023-02-16T00:28:49;97819.06;;;7.32;56.24
40992;BME280;29633;49.168;9.848;2023-02-16T00:31:20;97822.72;;;7.28;56.27
40992;BME280;29633;49.168;9.848;2023-02-16T00:33:46;97822.81;;;7.27;56.30
40992;BME280;29633;49.168;9.848;2023-02-16T00:36:12;97822.03;;;7.25;56.33
40992;BME280;29633;49.168;9.848;2023-02-16T00:38:37;97824.59;;;7.25;56.41
40992;BME280;29633;49.168;9.848;2023-02-16T00:41:03;97821.28;;;7.23;56.40
40992;BME280;29633;49.168;9.848;2023-02-16T00:43:29;97812.88;;;7.19;56.34
40992;BME280;29633;49.168;9.848;2023-02-16T00:45:55;97814.63;;;7.19;56.41
40992;BME280;29633;49.168;9.848;2023-02-16T00:51:47;97823.56;;;7.12;56.64
40992;BME280;29633;49.168;9.848;2023-02-16T00:54:13;97824.63;;;7.08;56.37
40992;BME280;29633;49.168;9.848;2023-02-16T00:56:39;97835.94;;;7.05;56.52
40992;BME280;29633;49.168;9.848;2023-02-16T00:59:06;97835.09;;;7.05;56.29
40992;BME280;29633;49.168;9.848;2023-02-16T01:01:33;97823.09;;;7.04;56.30
40992;BME280;29633;49.168;9.848;2023-02-16T01:04:00;97830.09;;;7.02;56.36
40992;BME280;29633;49.168;9.848;2023-02-16T01:06:26;97832.88;;;6.97;56.34
40992;BME280;29633;49.168;9.848;2023-02-16T01:09:16;97840.00;;;6.92;56.58
40992;BME280;29633;49.168;9.848;2023-02-16T01:12:02;97843.47;;;6.91;56.68
40992;BME280;29633;49.168;9.848;2023-02-16T01:14:30;97843.56;;;6.89;56.54
40992;BME280;29633;49.168;9.848;2023-02-16T01:16:56;97843.56;;;6.89;56.56
40992;BME280;29633;49.168;9.848;2023-02-16T01:19:22;97839.31;;;6.88;56.50
40992;BME280;29633;49.168;9.848;2023-02-16T01:21:47;97833.31;;;6.88;56.72
40992;BME280;29633;49.168;9.848;2023-02-16T01:24:13;97832.47;;;6.87;56.54
40992;BME280;29633;49.168;9.848;2023-02-16T01:26:42;97839.53;;;6.84;56.52
40992;BME280;29633;49.168;9.848;2023-02-16T01:29:16;97839.63;;;6.82;56.67
40992;BME280;29633;49.168;9.848;2023-02-16T01:31:42;97842.34;;;6.79;56.50
40992;BME280;29633;49.168;9.848;2023-02-16T01:34:08;97838.16;;;6.77;56.59
40992;BME280;29633;49.168;9.848;2023-02-16T01:36:37;97841.56;;;6.77;56.61
40992;BME280;29633;49.168;9.848;2023-02-16T01:39:03;97839.09;;;6.76;56.57
40992;BME280;29633;49.168;9.848;2023-02-16T01:42:02;97845.19;;;6.73;56.54
40992;BME280;29633;49.168;9.848;2023-02-16T01:45:07;97836.72;;;6.71;56.58
40992;BME280;29633;49.168;9.848;2023-02-16T01:47:41;97829.06;;;6.70;56.71
40992;BME280;29633;49.168;9.848;2023-02-16T01:50:47;97833.47;;;6.68;56.57
40992;BME280;29633;49.168;9.848;2023-02-16T01:53:20;97830.03;;;6.67;56.59
40992;BME280;29633;49.168;9.848;2023-02-16T01:55:50;97825.25;;;6.60;56.58
40992;BME280;29633;49.168;9.848;2023-02-16T01:58:41;97825.34;;;6.58;56.72
40992;BME280;29633;49.168;9.848;2023-02-16T02:04:39;97812.47;;;6.58;56.69
40992;BME280;29633;49.168;9.848;2023-02-16T02:07:33;97807.31;;;6.58;56.53
40992;BME280;29633;49.168;9.848;2023-02-16T02:10:20;97802.06;;;6.60;56.62
40992;BME280;29633;49.168;9.848;2023-02-16T02:15:16;97798.75;;;6.58;56.60
40992;BME280;29633;49.168;9.848;2023-02-16T02:17:44;97802.22;;;6.57;56.58
40992;BME280;29633;49.168;9.848;2023-02-16T02:26:12;97793.88;;;6.52;56.68
40992;BME280;29633;49.168;9.848;2023-02-16T02:34:16;97789.56;;;6.52;56.80
40992;BME280;29633;49.168;9.848;2023-02-16T02:42:24;97783.56;;;6.52;56.75
40992;BME280;29633;49.168;9.848;2023-02-16T02:44:53;97795.53;;;6.53;56.83
40992;BME280;29633;49.168;9.848;2023-02-16T02:47:20;97795.59;;;6.51;56.81
40992;BME280;29633;49.168;9.848;2023-02-16T02:49:50;97795.75;;;6.48;56.85
40992;BME280;29633;49.168;9.848;2023-02-16T02:52:16;97787.28;;;6.46;56.86
40992;BME280;29633;49.168;9.848;2023-02-16T02:54:42;97783.81;;;6.47;56.82
40992;BME280;29633;49.168;9.848;2023-02-16T02:57:36;97782.28;;;6.43;56.93
40992;BME280;29633;49.168;9.848;2023-02-16T03:00:23;97791.97;;;6.38;56.99
40992;BME280;29633;49.168;9.848;2023-02-16T03:06:00;97780.97;;;6.34;57.01
40992;BME280;29633;49.168;9.848;2023-02-16T03:08:30;97781.88;;;6.33;56.96
40992;BME280;29633;49.168;9.848;2023-02-16T03:14:29;97774.44;;;6.27;57.02
40992;BME280;29633;49.168;9.848;2023-02-16T03:16:40;97778.97;;;6.22;56.97
40992;BME280;29633;49.168;9.848;2023-02-16T03:19:08;97781.63;;;6.21;57.17
40992;BME280;29633;49.168;9.848;2023-02-16T03:21:54;97781.63;;;6.21;57.10
40992;BME280;29633;49.168;9.848;2023-02-16T03:24:40;97777.53;;;6.17;57.09
40992;BME280;29633;49.168;9.848;2023-02-16T03:27:26;97779.25;;;6.16;56.93
40992;BME280;29633;49.168;9.848;2023-02-16T03:30:12;97778.34;;;6.17;57.07
40992;BME280;29633;49.168;9.848;2023-02-16T03:32:39;97785.31;;;6.15;57.09
40992;BME280;29633;49.168;9.848;2023-02-16T03:35:05;97779.34;;;6.15;57.09
40992;BME280;29633;49.168;9.848;2023-02-16T03:37:31;97775.84;;;6.16;57.02
40992;BME280;29633;49.168;9.848;2023-02-16T03:39:57;97776.69;;;6.16;57.11
40992;BME280;29633;49.168;9.848;2023-02-16T03:42:51;97774.06;;;6.18;57.14
40992;BME280;29633;49.168;9.848;2023-02-16T03:45:20;97782.66;;;6.17;56.93
40992;BME280;29633;49.168;9.848;2023-02-16T03:47:48;97775.09;;;6.14;57.08
40992;BME280;29633;49.168;9.848;2023-02-16T03:50:14;97784.63;;;6.12;57.09
40992;BME280;29633;49.168;9.848;2023-02-16T03:52:40;97782.97;;;6.11;57.15
40992;BME280;29633;49.168;9.848;2023-02-16T03:55:06;97790.59;;;6.12;57.16
40992;BME280;29633;49.168;9.848;2023-02-16T03:57:32;97784.75;;;6.09;57.11
40992;BME280;29633;49.168;9.848;2023-02-16T03:59:57;97785.88;;;6.03;57.39
40992;BME280;29633;49.168;9.848;2023-02-16T04:02:24;97787.78;;;6.00;57.30
40992;BME280;29633;49.168;9.848;2023-02-16T04:04:50;97795.50;;;6.00;57.22
40992;BME280;29633;49.168;9.848;2023-02-16T04:07:16;97792.13;;;5.98;57.38
40992;BME280;29633;49.168;9.848;2023-02-16T04:09:41;97792.13;;;5.98;57.23
40992;BME280;29633;49.168;9.848;2023-02-16T04:12:08;97796.44;;;5.97;57.13
40992;BME280;29633;49.168;9.848;2023-02-16T04:14:54;97791.28;;;5.97;57.27
40992;BME280;29633;49.168;9.848;2023-02-16T04:17:19;97799.84;;;5.98;57.17
40992;BME280;29633;49.168;9.848;2023-02-16T04:19:45;97803.22;;;6.00;57.20
40992;BME280;29633;49.168;9.848;2023-02-16T04:22:11;97805.78;;;6.00;57.17
40992;BME280;29633;49.168;9.848;2023-02-16T04:24:36;97804.09;;;5.99;57.25
40992;BME280;29633;49.168;9.848;2023-02-16T04:27:02;97804.25;;;5.96;57.07
40992;BME280;29633;49.168;9.848;2023-02-16T04:29:28;97807.66;;;5.96;57.06
40992;BME280;29633;49.168;9.848;2023-02-16T04:31:54;97805.16;;;5.94;57.23
40992;BME280;29633;49.168;9.848;2023-02-16T04:34:19;97806.97;;;5.92;57.22
40992;BME280;29633;49.168;9.848;2023-02-16T04:36:45;97803.69;;;5.89;57.21
40992;BME280;29633;49.168;9.848;2023-02-16T04:39:11;97808.84;;;5.89;57.29
40992;BME280;29633;49.168;9.848;2023-02-16T04:41:39;97797.78;;;5.87;57.26
40992;BME280;29633;49.168;9.848;2023-02-16T04:44:04;97805.44;;;5.88;57.36
40992;BME280;29633;49.168;9.848;2023-02-16T04:46:30;97807.91;;;5.90;57.32
40992;BME280;29633;49.168;9.848;2023-02-16T04:48:56;97808.84;;;5.89;57.23
40992;BME280;29633;49.168;9.848;2023-02-16T04:51:22;97815.63;;;5.90;57.14
40992;BME280;29633;49.168;9.848;2023-02-16T04:53:47;97806.19;;;5.90;57.21
40992;BME280;29633;49.168;9.848;2023-02-16T04:56:13;97806.19;;;5.90;57.14
40992;BME280;29633;49.168;9.848;2023-02-16T04:58:39;97804.53;;;5.89;57.25
40992;BME280;29633;49.168;9.848;2023-02-16T05:01:05;97810.50;;;5.90;57.18
40992;BME280;29633;49.168;9.848;2023-02-16T05:03:30;97805.34;;;5.90;57.31
40992;BME280;29633;49.168;9.848;2023-02-16T05:05:56;97813.84;;;5.92;57.18
40992;BME280;29633;49.168;9.848;2023-02-16T05:08:22;97809.75;;;5.88;57.36
40992;BME280;29633;49.168;9.848;2023-02-16T05:10:47;97805.56;;;5.85;57.25
40992;BME280;29633;49.168;9.848;2023-02-16T05:13:33;97808.22;;;5.82;57.33
40992;BME280;29633;49.168;9.848;2023-02-16T05:16:19;97805.66;;;5.82;57.25
40992;BME280;29633;49.168;9.848;2023-02-16T05:18:45;97799.75;;;5.80;57.35
40992;BME280;29633;49.168;9.848;2023-02-16T05:21:11;97801.44;;;5.81;57.38
40992;BME280;29633;49.168;9.848;2023-02-16T05:23:56;97800.59;;;5.81;57.32
40992;BME280;29633;49.168;9.848;2023-02-16T05:26:21;97804.91;;;5.80;57.37
40992;BME280;29633;49.168;9.848;2023-02-16T05:28:47;97805.66;;;5.82;57.42
40992;BME280;29633;49.168;9.848;2023-02-16T05:31:13;97808.22;;;5.82;57.27
40992;BME280;29633;49.168;9.848;2023-02-16T05:33:38;97801.44;;;5.81;57.36
40992;BME280;29633;49.168;9.848;2023-02-16T05:36:04;97807.34;;;5.83;57.40
40992;BME280;29633;49.168;9.848;2023-02-16T05:38:30;97798.03;;;5.81;57.47
40992;BME280;29633;49.168;9.848;2023-02-16T05:40:55;97802.38;;;5.79;57.61
40992;BME280;29633;49.168;9.848;2023-02-16T05:43:23;97804.22;;;5.77;57.40
40992;BME280;29633;49.168;9.848;2023-02-16T05:45:48;97808.50;;;5.76;57.71
40992;BME280;29633;49.168;9.848;2023-02-16T05:48:14;97815.34;;;5.77;57.59
40992;BME280;29633;49.168;9.848;2023-02-16T05:50:40;97811.88;;;5.78;57.57
40992;BME280;29633;49.168;9.848;2023-02-16T05:53:08;97816.09;;;5.79;57.38
40992;BME280;29633;49.168;9.848;2023-02-16T05:55:33;97816.88;;;5.81;57.45
40992;BME280;29633;49.168;9.848;2023-02-16T05:57:59;97822.88;;;5.82;57.46
40992;BME280;29633;49.168;9.848;2023-02-16T06:00:24;97821.09;;;5.82;57.33
40992;BME280;29633;49.168;9.848;2023-02-16T06:02:50;97814.31;;;5.81;57.45
40992;BME280;29633;49.168;9.848;2023-02-16T06:05:16;97812.63;;;5.80;57.45
40992;BME280;29633;49.168;9.848;2023-02-16T06:07:41;97820.28;;;5.82;57.62
40992;BME280;29633;49.168;9.848;2023-02-16T06:10:08;97831.38;;;5.82;57.50
40992;BME280;29633;49.168;9.848;2023-02-16T06:12:33;97833.16;;;5.82;57.37
40992;BME280;29633;49.168;9.848;2023-02-16T06:15:00;97831.34;;;5.84;57.41
40992;BME280;29633;49.168;9.848;2023-02-16T06:17:25;97839.88;;;5.84;57.39
40992;BME280;29633;49.168;9.848;2023-02-16T06:19:53;97834.94;;;5.80;57.41
40992;BME280;29633;49.168;9.848;2023-02-16T06:22:18;97841.81;;;5.79;57.49
40992;BME280;29633;49.168;9.848;2023-02-16T06:24:44;97832.47;;;5.78;57.35
40992;BME280;29633;49.168;9.848;2023-02-16T06:27:10;97834.06;;;5.81;57.47
40992;BME280;29633;49.168;9.848;2023-02-16T06:29:35;97829.66;;;5.83;57.50
40992;BME280;29633;49.168;9.848;2023-02-16T06:32:01;97837.31;;;5.84;57.45
40992;BME280;29633;49.168;9.848;2023-02-16T06:34:27;97839.88;;;5.84;57.51
40992;BME280;29633;49.168;9.848;2023-02-16T06:36:52;97854.44;;;5.85;57.48
40992;BME280;29633;49.168;9.848;2023-02-16T06:39:18;97848.41;;;5.86;57.33
40992;BME280;29633;49.168;9.848;2023-02-16T06:41:44;97849.19;;;5.88;57.52
40992;BME280;29633;49.168;9.848;2023-02-16T06:44:11;97848.44;;;5.85;57.38
40992;BME280;29633;49.168;9.848;2023-02-16T06:46:38;97861.38;;;5.83;57.56
40992;BME280;29633;49.168;9.848;2023-02-16T06:49:04;97847.63;;;5.84;57.52
40992;BME280;29633;49.168;9.848;2023-02-16T06:51:30;97857.78;;;5.87;57.21
40992;BME280;29633;49.168;9.848;2023-02-16T06:53:56;97851.91;;;5.84;57.43
40992;BME280;29633;49.168;9.848;2023-02-16T06:56:22;97848.50;;;5.83;57.29
40992;BME280;29633;49.168;9.848;2023-02-16T06:58:48;97848.50;;;5.83;57.62
40992;BME280;29633;49.168;9.848;2023-02-16T07:01:13;97843.25;;;5.86;57.42
40992;BME280;29633;49.168;9.848;2023-02-16T07:03:39;97855.16;;;5.89;57.55
40992;BME280;29633;49.168;9.848;2023-02-16T07:06:05;97843.06;;;5.91;57.55
40992;BME280;29633;49.168;9.848;2023-02-16T07:08:31;97851.47;;;5.94;57.47
40992;BME280;29633;49.168;9.848;2023-02-16T07:10:56;97855.59;;;5.99;57.39
40992;BME280;29633;49.168;9.848;2023-02-16T07:13:22;97851.97;;;6.03;57.40
40992;BME280;29633;49.168;9.848;2023-02-16T07:15:48;97858.66;;;6.07;57.41
40992;BME280;29633;49.168;9.848;2023-02-16T07:18:14;97848.28;;;6.08;57.52
40992;BME280;29633;49.168;9.848;2023-02-16T07:20:39;97857.63;;;6.11;57.46
40992;BME280;29633;49.168;9.848;2023-02-16T07:23:05;97858.44;;;6.11;57.57
40992;BME280;29633;49.168;9.848;2023-02-16T07:25:31;97865.09;;;6.15;57.61
40992;BME280;29633;49.168;9.848;2023-02-16T07:27:59;97865.75;;;6.20;57.52
40992;BME280;29633;49.168;9.848;2023-02-16T07:30:24;97865.47;;;6.26;57.48
40992;BME280;29633;49.168;9.848;2023-02-16T07:32:50;97869.41;;;6.33;57.41
40992;BME280;29633;49.168;9.848;2023-02-16T07:35:15;97872.56;;;6.40;57.44
40992;BME280;29633;49.168;9.848;2023-02-16T07:37:41;97869.50;;;6.51;57.36
40992;BME280;29633;49.168;9.848;2023-02-16T07:40:07;97865.63;;;6.59;57.25
40992;BME280;29633;49.168;9.848;2023-02-16T07:42:33;97867.78;;;6.68;57.39
40992;BME280;29633;49.168;9.848;2023-02-16T07:45:01;97865.69;;;6.76;57.34
40992;BME280;29633;49.168;9.848;2023-02-16T07:47:26;97858.34;;;6.86;57.31
40992;BME280;29633;49.168;9.848;2023-02-16T07:49:52;97862.16;;;6.96;57.28
40992;BME280;29633;49.168;9.848;2023-02-16T07:52:18;97857.63;;;7.01;57.18
40992;BME280;29633;49.168;9.848;2023-02-16T07:54:43;97857.31;;;7.07;57.24
40992;BME280;29633;49.168;9.848;2023-02-16T07:57:09;97860.41;;;7.14;57.38
40992;BME280;29633;49.168;9.848;2023-02-16T07:59:34;97857.56;;;7.20;57.32
40992;BME280;29633;49.168;9.848;2023-02-16T08:02:00;97857.75;;;7.32;57.30
40992;BME280;29633;49.168;9.848;2023-02-16T08:04:26;97859.78;;;7.43;57.27
40992;BME280;29633;49.168;9.848;2023-02-16T08:06:51;97858.25;;;7.56;57.16
40992;BME280;29633;49.168;9.848;2023-02-16T08:09:17;97858.53;;;7.67;57.06
40992;BME280;29633;49.168;9.848;2023-02-16T08:11:43;97863.81;;;7.81;57.26
40992;BME280;29633;49.168;9.848;2023-02-16T08:14:09;97858.88;;;7.94;57.20
40992;BME280;29633;49.168;9.848;2023-02-16T08:16:36;97871.03;;;8.08;57.05
40992;BME280;29633;49.168;9.848;2023-02-16T08:19:01;97868.50;;;8.23;57.10
40992;BME280;29633;49.168;9.848;2023-02-16T08:21:30;97871.13;;;8.39;57.19
40992;BME280;29633;49.168;9.848;2023-02-16T08:23:59;97868.63;;;8.53;57.18
40992;BME280;29633;49.168;9.848;2023-02-16T08:26:32;97871.00;;;8.72;57.10
40992;BME280;29633;49.168;9.848;2023-02-16T08:28:58;97874.50;;;8.86;57.07
40992;BME280;29633;49.168;9.848;2023-02-16T08:31:27;97871.03;;;9.02;57.31
40992;BME280;29633;49.168;9.848;2023-02-16T08:33:56;97870.19;;;9.17;57.27
40992;BME280;29633;49.168;9.848;2023-02-16T08:36:28;97876.16;;;9.33;57.30
40992;BME280;29633;49.168;9.848;2023-02-16T08:38:56;97874.16;;;9.52;57.39
40992;BME280;29633;49.168;9.848;2023-02-16T08:41:24;97872.81;;;9.75;57.08
40992;BME280;29633;49.168;9.848;2023-02-16T08:43:53;97866.31;;;10.38;56.80
40992;BME280;29633;49.168;9.848;2023-02-16T08:46:19;97858.03;;;12.04;54.84
40992;BME280;29633;49.168;9.848;2023-02-16T08:48:46;97849.19;;;13.84;52.40
40992;BME280;29633;49.168;9.848;2023-02-16T08:51:16;97851.53;;;15.39;50.86
40992;BME280;29633;49.168;9.848;2023-02-16T08:53:43;97847.59;;;16.16;50.38
40992;BME280;29633;49.168;9.848;2023-02-16T08:56:09;97848.66;;;16.14;51.38
40992;BME280;29633;49.168;9.848;2023-02-16T08:58:36;97855.81;;;16.92;50.71
40992;BME280;29633;49.168;9.848;2023-02-16T09:01:06;97852.97;;;17.99;49.66
40992;BME280;29633;49.168;9.848;2023-02-16T09:03:37;97848.47;;;19.00;48.64
40992;BME280;29633;49.168;9.848;2023-02-16T09:06:06;97844.28;;;19.25;48.84
40992;BME280;29633;49.168;9.848;2023-02-16T09:08:32;97849.44;;;19.70;48.58
40992;BME280;29633;49.168;9.848;2023-02-16T09:11:02;97852.47;;;20.09;48.84
40992;BME280;29633;49.168;9.848;2023-02-16T09:13:27;97846.06;;;20.11;49.40
40992;BME280;29633;49.168;9.848;2023-02-16T09:15:53;97851.31;;;20.03;50.08
40992;BME280;29633;49.168;9.848;2023-02-16T09:18:20;97849.75;;;19.93;50.42
40992;BME280;29633;49.168;9.848;2023-02-16T09:20:45;97850.03;;;19.90;51.18
40992;BME280;29633;49.168;9.848;2023-02-16T09:23:11;97849.13;;;19.99;51.65
40992;BME280;29633;49.168;9.848;2023-02-16T09:25:39;97848.44;;;19.97;51.97
40992;BME280;29633;49.168;9.848;2023-02-16T09:28:05;97843.78;;;20.17;51.83
40992;BME280;29633;49.168;9.848;2023-02-16T09:30:31;97843.16;;;20.48;51.90
40992;BME280;29633;49.168;9.848;2023-02-16T09:33:00;97848.69;;;20.87;52.02
40992;BME280;29633;49.168;9.848;2023-02-16T09:35:26;97845.91;;;20.89;51.84
40992;BME280;29633;49.168;9.848;2023-02-16T09:37:52;97850.53;;;20.95;52.14
40992;BME280;29633;49.168;9.848;2023-02-16T09:40:18;97846.66;;;21.31;52.26
40992;BME280;29633;49.168;9.848;2023-02-16T09:45:48;97842.50;;;23.64;50.21
40992;BME280;29633;49.168;9.848;2023-02-16T09:48:36;97841.25;;;23.74;50.30
40992;BME280;29633;49.168;9.848;2023-02-16T09:51:03;97843.88;;;23.74;50.91
40992;BME280;29633;49.168;9.848;2023-02-16T09:53:35;97845.97;;;23.64;51.63
40992;BME280;29633;49.168;9.848;2023-02-16T10:01:47;97832.63;;;24.39;50.76
40992;BME280;29633;49.168;9.848;2023-02-16T10:09:21;97838.50;;;24.34;50.74
40992;BME280;29633;49.168;9.848;2023-02-16T10:11:56;97845.81;;;23.80;51.13
40992;BME280;29633;49.168;9.848;2023-02-16T10:17:26;97839.53;;;22.90;52.60
40992;BME280;29633;49.168;9.848;2023-02-16T10:20:12;97834.72;;;22.94;52.34
40992;BME280;29633;49.168;9.848;2023-02-16T10:25:23;97824.00;;;23.93;50.55
40992;BME280;29633;49.168;9.848;2023-02-16T10:28:02;97822.88;;;24.25;49.70
40992;BME280;29633;49.168;9.848;2023-02-16T10:30:31;97823.56;;;24.04;49.63
40992;BME280;29633;49.168;9.848;2023-02-16T10:35:47;97833.09;;;22.93;50.21
40992;BME280;29633;49.168;9.848;2023-02-16T10:38:42;97828.03;;;22.36;50.83
40992;BME280;29633;49.168;9.848;2023-02-16T10:41:27;97833.13;;;21.91;51.23
40992;BME280;29633;49.168;9.848;2023-02-16T10:44:02;97833.47;;;21.55;51.59
40992;BME280;29633;49.168;9.848;2023-02-16T10:46:33;97825.72;;;21.22;51.68
40992;BME280;29633;49.168;9.848;2023-02-16T10:49:01;97830.25;;;20.95;52.27
40992;BME280;29633;49.168;9.848;2023-02-16T10:51:32;97831.06;;;20.72;52.03
40992;BME280;29633;49.168;9.848;2023-02-16T10:54:07;97827.53;;;20.47;52.85
40992;BME280;29633;49.168;9.848;2023-02-16T10:56:52;97829.03;;;20.24;52.86
40992;BME280;29633;49.168;9.848;2023-02-16T11:01:57;97832.13;;;19.93;53.26
40992;BME280;29633;49.168;9.848;2023-02-16T11:04:41;97834.56;;;19.87;52.93
40992;BME280;29633;49.168;9.848;2023-02-16T11:07:18;97824.09;;;19.69;53.43
40992;BME280;29633;49.168;9.848;2023-02-16T11:09:46;97825.19;;;19.58;53.50
40992;BME280;29633;49.168;9.848;2023-02-16T11:14:39;97818.50;;;19.46;53.42
40992;BME280;29633;49.168;9.848;2023-02-16T11:17:12;97818.50;;;19.46;53.38
40992;BME280;29633;49.168;9.848;2023-02-16T11:19:40;97816.56;;;19.48;53.44
40992;BME280;29633;49.168;9.848;2023-02-16T11:22:34;97820.38;;;19.54;53.58
40992;BME280;29633;49.168;9.848;2023-02-16T11:25:21;97803.16;;;19.59;53.47
40992;BME280;29633;49.168;9.848;2023-02-16T11:27:56;97797.22;;;19.57;53.61
40992;BME280;29633;49.168;9.848;2023-02-16T11:30:31;97799.84;;;19.57;53.43
40992;BME280;29633;49.168;9.848;2023-02-16T11:32:59;97796.41;;;19.57;53.26
40992;BME280;29633;49.168;9.848;2023-02-16T11:35:26;97790.84;;;19.60;53.41
40992;BME280;29633;49.168;9.848;2023-02-16T11:37:52;97791.81;;;19.59;53.35
40992;BME280;29633;49.168;9.848;2023-02-16T11:40:26;97791.31;;;19.55;53.55
40992;BME280;29633;49.168;9.848;2023-02-16T11:42:55;97790.00;;;19.59;53.46
40992;BME280;29633;49.168;9.848;2023-02-16T11:45:23;97790.16;;;19.58;53.57
40992;BME280;29633;49.168;9.848;2023-02-16T11:47:55;97791.31;;;19.55;53.43
40992;BME280;29633;49.168;9.848;2023-02-16T11:50:26;97782.72;;;19.53;53.62
40992;BME280;29633;49.168;9.848;2023-02-16T11:52:56;97781.41;;;19.49;53.32
40992;BME280;29633;49.168;9.848;2023-02-16T11:55:30;97775.00;;;19.52;53.59
40992;BME280;29633;49.168;9.848;2023-02-16T11:58:26;97779.13;;;19.54;53.46
40992;BME280;29633;49.168;9.848;2023-02-16T12:01:01;97772.56;;;19.58;53.55
40992;BME280;29633;49.168;9.848;2023-02-16T12:04:02;97762.75;;;19.60;53.49
40992;BME280;29633;49.168;9.848;2023-02-16T12:12:15;97759.22;;;19.78;53.60
40992;BME280;29633;49.168;9.848;2023-02-16T12:17:36;97753.00;;;19.87;53.32
40992;BME280;29633;49.168;9.848;2023-02-16T12:22:48;97750.88;;;19.90;53.07
40992;BME280;29633;49.168;9.848;2023-02-16T12:25:34;97743.66;;;19.92;53.03
40992;BME280;29633;49.168;9.848;2023-02-16T12:36:37;97730.69;;;19.99;53.33
40992;BME280;29633;49.168;9.848;2023-02-16T12:39:30;97740.25;;;20.08;53.23
40992;BME280;29633;49.168;9.848;2023-02-16T12:44:38;97732.56;;;20.23;53.04
40992;BME280;29633;49.168;9.848;2023-02-16T12:47:17;97724.91;;;20.37;52.89
40992;BME280;29633;49.168;9.848;2023-02-16T12:50:04;97723.00;;;20.63;52.84
40992;BME280;29633;49.168;9.848;2023-02-16T12:52:39;97715.59;;;20.99;52.07
40992;BME280;29633;49.168;9.848;2023-02-16T13:01:04;97713.00;;;22.26;50.98
40992;BME280;29633;49.168;9.848;2023-02-16T13:03:44;97709.50;;;22.33;50.99
40992;BME280;29633;49.168;9.848;2023-02-16T13:11:57;97699.81;;;22.18;51.34
40992;BME280;29633;49.168;9.848;2023-02-16T13:14:30;97696.47;;;21.93;51.68
40992;BME280;29633;49.168;9.848;2023-02-16T13:17:04;97699.31;;;21.83;51.93
40992;BME280;29633;49.168;9.848;2023-02-16T13:19:34;97696.91;;;21.66;52.37
40992;BME280;29633;49.168;9.848;2023-02-16T13:22:42;97700.25;;;21.51;52.50
40992;BME280;29633;49.168;9.848;2023-02-16T13:28:20;97687.69;;;21.45;53.20
40992;BME280;29633;49.168;9.848;2023-02-16T13:44:52;97691.88;;;22.79;53.07
40992;BME280;29633;49.168;9.848;2023-02-16T13:47:28;97687.94;;;23.13;53.02
40992;BME280;29633;49.168;9.848;2023-02-16T13:49:56;97689.88;;;23.33;53.29
40992;BME280;29633;49.168;9.848;2023-02-16T13:52:29;97680.25;;;23.70;53.14
40992;BME280;29633;49.168;9.848;2023-02-16T13:54:59;97681.00;;;23.93;52.98
40992;BME280;29633;49.168;9.848;2023-02-16T14:03:12;97688.22;;;23.70;53.08
40992;BME280;29633;49.168;9.848;2023-02-16T14:14:31;97699.97;;;22.24;53.35
40992;BME280;29633;49.168;9.848;2023-02-16T14:17:14;97695.81;;;21.99;52.79
40992;BME280;29633;49.168;9.848;2023-02-16T14:22:51;97698.16;;;21.78;52.51
40992;BME280;29633;49.168;9.848;2023-02-16T14:27:51;97686.38;;;21.49;52.74
40992;BME280;29633;49.168;9.848;2023-02-16T14:32:50;97693.84;;;21.38;52.64
40992;BME280;29633;49.168;9.848;2023-02-16T14:35:24;97687.56;;;21.39;52.43
40992;BME280;29633;49.168;9.848;2023-02-16T14:37:54;97692.50;;;21.42;52.45
40992;BME280;29633;49.168;9.848;2023-02-16T14:43:03;97685.44;;;21.10;52.39
40992;BME280;29633;49.168;9.848;2023-02-16T14:48:20;97689.38;;;20.49;52.32
40992;BME280;29633;49.168;9.848;2023-02-16T14:56:32;97696.34;;;19.67;52.36
40992;BME280;29633;49.168;9.848;2023-02-16T15:01:53;97698.84;;;19.25;52.04
40992;BME280;29633;49.168;9.848;2023-02-16T15:04:29;97686.59;;;19.07;52.30
40992;BME280;29633;49.168;9.848;2023-02-16T15:06:57;97688.94;;;18.93;52.13
40992;BME280;29633;49.168;9.848;2023-02-16T15:09:28;97693.47;;;18.83;52.36
40992;BME280;29633;49.168;9.848;2023-02-16T15:12:04;97694.53;;;18.72;51.81
40992;BME280;29633;49.168;9.848;2023-02-16T15:14:56;97689.38;;;18.62;52.07
40992;BME280;29633;49.168;9.848;2023-02-16T15:17:32;97683.19;;;18.54;51.62
40992;BME280;29633;49.168;9.848;2023-02-16T15:20:34;97679.63;;;18.45;51.94
40992;BME280;29633;49.168;9.848;2023-02-16T15:23:05;97677.75;;;18.38;51.91
40992;BME280;29633;49.168;9.848;2023-02-16T15:25:34;97690.34;;;18.34;51.80
40992;BME280;29633;49.168;9.848;2023-02-16T15:28:24;97695.25;;;18.29;51.82
40992;BME280;29633;49.168;9.848;2023-02-16T15:30:58;97693.50;;;18.20;51.63
40992;BME280;29633;49.168;9.848;2023-02-16T15:33:31;97682.94;;;18.12;51.71
40992;BME280;29633;49.168;9.848;2023-02-16T15:36:10;97688.75;;;18.06;51.76
40992;BME280;29633;49.168;9.848;2023-02-16T15:38:53;97685.75;;;18.01;51.66
40992;BME280;29633;49.168;9.848;2023-02-16T15:43:56;97681.91;;;17.95;51.62
40992;BME280;29633;49.168;9.848;2023-02-16T15:46:31;97678.16;;;17.98;51.68
40992;BME280;29633;49.168;9.848;2023-02-16T15:48:58;97682.13;;;18.02;51.56
40992;BME280;29633;49.168;9.848;2023-02-16T15:51:32;97681.03;;;18.04;51.35
40992;BME280;29633;49.168;9.848;2023-02-16T15:54:34;97672.69;;;18.09;51.36
40992;BME280;29633;49.168;9.848;2023-02-16T15:57:09;97659.59;;;18.09;51.32